Terminal Aerodrome Forecast
Issued by NWS Columbia, SC

Home | Current Version | Previous Version | Text Only | Print | Product List | Glossary On
Versions: 1 2 3 4 5 6 7 8 9 10 11 12 13 14 15 16 17 18 19 20 21 22 23 24 25 26 27 28 29 30 31 32 33 34 35 36 37 38 39 40 41 42 43 44 45 46 47 48 49 50
000
FTAK31 PAJN 161400 AAA
TAFAGS
TAF AMD
PAGS 161438Z 1615/1712 VRB03KT 1SM -RA BR OVC002
      TEMPO 1615/1617 5SM -RA BR SCT002 OVC015
     FM161700 00000KT P6SM VCSH SCT004 OVC015
     FM161900 VRB03KT P6SM SCT015 BKN030 OVC060
     FM162100 24005KT P6SM OVC060
     FM170200 VRB03KT P6SM BKN100
     FM170600 00000KT P6SM VCFG SCT003 BKN100
      AMD NOT SKED=

USA.gov is the U.S. government's official web portal to all federal, state and local government web resources and services.